Cape Providence — 3EWQ — position and weather

sailwx.info

Track history (hours):
 
Tides and Currents Weather Stations Pressure Air Temp Water Temp Dewpoint Dewpoint Depression Visibility Wind Speed Wind Dir Waves Ship Positions

Cape Providence

Last reported at 2015-Jul-04 05:20 UTC. Time now 2015-Jul-04 20:44 UTC.
Position N 32°13' E 123°54'.

Length 292 m; draft 18 m.

Type: Cargo ship. MMSI: 372773000.

Date/timePositionNaut miles runAvg speedWind from/ knotsBaromVisibWave heightAir tempDewpointWater temp
2015-Jul-04 05:20N 32°13' E 123°54'1310.7
2015-Jul-04 04:07N 31°60' E 123°54'811.0
2015-Jul-04 03:22N 31°51' E 123°54'910.7
2015-Jul-04 02:33N 31°43' E 123°54'10 9.9
2015-Jul-04 01:32N 31°33' E 123°54'10 9.4
2015-Jul-04 00:25N 31°22' E 123°54'8 8.9
2015-Jul-03 23:30N 31°14' E 123°55'11 8.3
2015-Jul-03 22:12N 31°03' E 123°55'5 8.0
2015-Jul-03 21:33N 30°58' E 123°54'17 8.5
2015-Jul-03 19:33N 30°41' E 123°51'9 9.0
2015-Jul-03 18:33N 30°33' E 123°50'10 9.6
2015-Jul-03 17:33N 30°23' E 123°49'12 9.9
2015-Jul-03 16:22N 30°11' E 123°48'1210.0
2015-Jul-03 15:11N 29°60' E 123°45'  
Track history (hours):
 
Tides and Currents Weather Stations Pressure Air Temp Water Temp Dewpoint Dewpoint Depression Visibility Wind Speed Wind Dir Waves Ship Positions

Cape Providence

Last reported at 2015-Jul-04 05:20 UTC. Time now 2015-Jul-04 20:44 UTC.
Position N 32°13' E 123°54'.

Length 292 m; draft 18 m.

Type: Cargo ship. MMSI: 372773000.

Date/timePositionNaut miles runAvg speedWind from/ knotsBaromVisibWave heightAir tempDewpointWater temp
2015-Jul-04 05:20N 32°13' E 123°54'1310.7
2015-Jul-04 04:07N 31°60' E 123°54'811.0
2015-Jul-04 03:22N 31°51' E 123°54'910.7
2015-Jul-04 02:33N 31°43' E 123°54'10 9.9
2015-Jul-04 01:32N 31°33' E 123°54'10 9.4
2015-Jul-04 00:25N 31°22' E 123°54'8 8.9
2015-Jul-03 23:30N 31°14' E 123°55'11 8.3
2015-Jul-03 22:12N 31°03' E 123°55'5 8.0
2015-Jul-03 21:33N 30°58' E 123°54'17 8.5
2015-Jul-03 19:33N 30°41' E 123°51'9 9.0
2015-Jul-03 18:33N 30°33' E 123°50'10 9.6
2015-Jul-03 17:33N 30°23' E 123°49'12 9.9
2015-Jul-03 16:22N 30°11' E 123°48'1210.0
2015-Jul-03 15:11N 29°60' E 123°45'  

Dump ship's entire track history